createdAt,value
2019-03-30T00:00:32.664Z,16.40
2019-03-30T00:03:02.056Z,16.50
2019-03-30T00:05:31.453Z,16.50
2019-03-30T00:08:00.917Z,16.50
2019-03-30T00:10:30.304Z,16.50
2019-03-30T00:12:59.703Z,16.50
2019-03-30T00:15:42.959Z,16.50
2019-03-30T00:18:12.347Z,16.50
2019-03-30T00:20:41.818Z,16.60
2019-03-30T00:23:11.215Z,16.50
2019-03-30T00:25:40.940Z,16.40
2019-03-30T00:28:10.342Z,16.30
2019-03-30T00:30:39.717Z,16.30
2019-03-30T00:33:09.099Z,16.30
2019-03-30T00:35:38.483Z,16.40
2019-03-30T00:38:07.866Z,16.40
2019-03-30T00:40:37.250Z,16.40
2019-03-30T00:43:06.652Z,16.50
2019-03-30T00:45:36.094Z,16.50
2019-03-30T00:48:05.478Z,16.40
2019-03-30T00:50:34.856Z,16.40
2019-03-30T00:53:04.323Z,16.40
2019-03-30T00:55:33.867Z,16.30
2019-03-30T00:58:03.280Z,16.30
2019-03-30T01:00:32.721Z,16.30
2019-03-30T01:03:02.115Z,16.30
2019-03-30T01:05:31.491Z,16.20
2019-03-30T01:08:00.908Z,16.20
2019-03-30T01:10:30.279Z,16.10
2019-03-30T01:12:59.670Z,16.10
2019-03-30T01:15:29.156Z,16.10
2019-03-30T01:17:58.594Z,16.20
2019-03-30T01:20:27.977Z,16.10
2019-03-30T01:22:57.350Z,16.10
2019-03-30T01:25:26.803Z,16.10
2019-03-30T01:27:56.189Z,16.20
2019-03-30T01:30:25.579Z,16.10
2019-03-30T01:32:54.947Z,16.10
2019-03-30T01:35:24.392Z,16.10
2019-03-30T01:37:53.994Z,16.10
2019-03-30T01:40:23.412Z,16.10
2019-03-30T01:42:52.834Z,16.10
2019-03-30T01:45:22.234Z,16.00
2019-03-30T01:47:51.616Z,16.00
2019-03-30T01:50:21.002Z,16.00
2019-03-30T01:52:50.378Z,15.90
2019-03-30T01:55:19.766Z,15.90
2019-03-30T01:57:49.143Z,15.80
2019-03-30T02:00:18.883Z,15.80
2019-03-30T02:02:48.252Z,15.80
2019-03-30T02:05:17.829Z,15.80
2019-03-30T02:07:47.208Z,15.70
2019-03-30T02:10:37.561Z,15.80
2019-03-30T02:13:06.946Z,15.80
2019-03-30T02:15:37.666Z,15.90
2019-03-30T02:18:07.219Z,15.90
2019-03-30T02:20:42.437Z,15.90
2019-03-30T02:23:11.979Z,15.90
2019-03-30T02:25:41.436Z,16.00
2019-03-30T02:28:10.965Z,16.00
2019-03-30T02:30:40.603Z,16.10
2019-03-30T02:33:10.133Z,16.20
2019-03-30T02:35:39.728Z,16.20
2019-03-30T02:38:09.199Z,16.30
2019-03-30T02:40:38.830Z,16.30
2019-03-30T02:43:08.302Z,16.30
2019-03-30T02:45:37.691Z,16.30
2019-03-30T02:48:07.071Z,16.40
2019-03-30T02:50:49.487Z,16.40
2019-03-30T02:53:07.647Z,16.40
2019-03-30T02:55:37.071Z,16.50
2019-03-30T02:58:06.440Z,16.50
2019-03-30T03:00:35.834Z,16.50
2019-03-30T03:03:05.293Z,16.50
2019-03-30T03:05:34.881Z,16.50
2019-03-30T03:08:04.293Z,16.50
2019-03-30T03:10:33.748Z,16.50
2019-03-30T03:13:03.137Z,16.50
2019-03-30T03:15:32.519Z,16.50
2019-03-30T03:18:01.975Z,16.50
2019-03-30T03:20:31.438Z,16.50
2019-03-30T03:23:00.983Z,16.50
2019-03-30T03:25:30.381Z,16.40
2019-03-30T03:27:59.878Z,16.30
2019-03-30T03:30:29.294Z,16.30
2019-03-30T03:32:58.736Z,16.20
2019-03-30T03:35:28.123Z,16.30
2019-03-30T03:37:57.559Z,16.20
2019-03-30T03:40:26.945Z,16.20
2019-03-30T03:42:56.336Z,16.20
2019-03-30T03:45:25.799Z,16.20
2019-03-30T03:47:55.182Z,16.20
2019-03-30T03:50:39.495Z,16.10
2019-03-30T03:53:15.255Z,16.10
2019-03-30T03:56:01.371Z,16.00
2019-03-30T03:58:33.957Z,16.00
2019-03-30T04:01:04.164Z,16.00
2019-03-30T04:03:34.390Z,16.00
2019-03-30T04:06:06.273Z,16.10
2019-03-30T04:08:36.479Z,16.10
2019-03-30T04:11:07.006Z,16.10
2019-03-30T04:13:38.404Z,16.10
2019-03-30T04:16:08.487Z,16.20
2019-03-30T04:18:37.869Z,16.30
2019-03-30T04:21:07.252Z,16.30
2019-03-30T04:23:36.859Z,16.40
2019-03-30T04:26:06.328Z,16.40
2019-03-30T04:28:35.726Z,16.40
2019-03-30T04:31:06.173Z,16.40
2019-03-30T04:33:35.634Z,16.30
2019-03-30T04:36:05.068Z,16.30
2019-03-30T04:38:34.447Z,16.40
2019-03-30T04:41:03.842Z,16.40
2019-03-30T04:43:33.303Z,16.40
2019-03-30T04:46:02.757Z,16.40
2019-03-30T04:48:32.129Z,16.30
2019-03-30T04:51:01.599Z,16.40
2019-03-30T04:53:32.049Z,16.40
2019-03-30T04:56:01.554Z,16.40
2019-03-30T04:58:30.943Z,16.40
2019-03-30T05:01:00.322Z,16.40
2019-03-30T05:03:30.782Z,16.40
2019-03-30T05:06:00.162Z,16.40
2019-03-30T05:08:29.615Z,16.40
2019-03-30T05:10:58.998Z,16.50
2019-03-30T05:13:28.379Z,16.40
2019-03-30T05:15:57.842Z,16.40
2019-03-30T05:18:27.279Z,16.40
2019-03-30T05:20:56.672Z,16.40
2019-03-30T05:23:26.046Z,16.40
2019-03-30T05:25:55.439Z,16.50
2019-03-30T05:28:44.151Z,16.50
2019-03-30T05:31:13.571Z,16.50
2019-03-30T05:33:42.941Z,16.40
2019-03-30T05:36:12.326Z,16.40
2019-03-30T05:38:41.719Z,16.40
2019-03-30T05:41:12.198Z,16.40
2019-03-30T05:43:41.580Z,16.40
2019-03-30T05:46:12.043Z,16.40
2019-03-30T05:48:41.407Z,16.40
2019-03-30T05:51:10.791Z,16.40
2019-03-30T05:53:40.192Z,16.40
2019-03-30T05:56:09.566Z,16.40
2019-03-30T05:58:38.954Z,16.50
2019-03-30T06:01:08.325Z,16.50
2019-03-30T06:03:37.723Z,16.40
2019-03-30T06:06:07.097Z,16.50
2019-03-30T06:08:36.474Z,16.50
2019-03-30T06:11:06.008Z,16.40
2019-03-30T06:13:35.447Z,16.40
2019-03-30T06:16:04.822Z,16.50
2019-03-30T06:18:34.218Z,16.50
2019-03-30T06:21:03.606Z,16.40
2019-03-30T06:23:32.994Z,16.40
2019-03-30T06:26:02.393Z,16.40
2019-03-30T06:28:31.771Z,16.40
2019-03-30T06:31:01.156Z,16.40
2019-03-30T06:33:30.544Z,16.30
2019-03-30T06:35:59.926Z,16.40
2019-03-30T06:38:29.303Z,16.40
2019-03-30T06:40:58.694Z,16.40
2019-03-30T06:43:28.076Z,16.40
2019-03-30T06:45:57.472Z,16.40
2019-03-30T06:48:26.874Z,16.50
2019-03-30T06:50:56.244Z,16.40
2019-03-30T06:53:25.630Z,16.50
2019-03-30T06:55:55.018Z,16.50
2019-03-30T06:58:24.399Z,16.50
2019-03-30T07:00:54.130Z,16.50
2019-03-30T07:03:23.782Z,16.60
2019-03-30T07:05:54.900Z,16.70
2019-03-30T07:08:26.251Z,16.70
2019-03-30T07:10:56.024Z,16.70
2019-03-30T07:13:27.981Z,16.70
2019-03-30T07:15:59.466Z,16.70
2019-03-30T07:18:29.687Z,16.80
2019-03-30T07:21:12.508Z,16.80
2019-03-30T07:23:41.952Z,16.80
2019-03-30T07:26:11.409Z,16.90
2019-03-30T07:28:40.879Z,16.90
2019-03-30T07:31:10.367Z,16.90
2019-03-30T07:33:46.242Z,16.90
2019-03-30T07:36:15.629Z,17.00
2019-03-30T07:38:45.091Z,17.10
2019-03-30T07:41:14.492Z,17.10
2019-03-30T07:43:57.929Z,17.20
2019-03-30T07:46:27.421Z,17.20
2019-03-30T07:48:56.838Z,17.20
2019-03-30T07:51:26.299Z,17.20
2019-03-30T07:53:56.007Z,17.20
2019-03-30T07:56:25.442Z,17.20
2019-03-30T07:58:55.019Z,17.30
2019-03-30T08:01:24.398Z,17.30
2019-03-30T08:03:53.798Z,17.40
2019-03-30T08:06:23.182Z,17.40
2019-03-30T08:08:52.650Z,17.40
2019-03-30T08:11:22.165Z,17.40
2019-03-30T08:13:51.559Z,17.40
2019-03-30T08:16:20.943Z,17.50
2019-03-30T08:18:50.343Z,17.50
2019-03-30T08:21:19.728Z,17.60
2019-03-30T08:23:49.146Z,17.70
2019-03-30T08:26:18.554Z,17.70
2019-03-30T08:28:49.018Z,17.70
2019-03-30T08:31:18.452Z,17.80
2019-03-30T08:33:47.966Z,17.80
2019-03-30T08:36:17.359Z,17.90
2019-03-30T08:38:46.762Z,18.00
2019-03-30T08:41:16.170Z,18.00
2019-03-30T08:43:45.629Z,18.10
2019-03-30T08:46:15.034Z,18.10
2019-03-30T08:48:44.432Z,18.20
2019-03-30T08:51:28.165Z,18.20
2019-03-30T08:53:57.592Z,18.30
2019-03-30T08:56:28.083Z,18.20
2019-03-30T08:58:57.790Z,18.20
2019-03-30T09:01:27.294Z,18.30
2019-03-30T09:03:56.834Z,18.40
2019-03-30T09:06:26.241Z,18.40
2019-03-30T09:08:55.644Z,18.50
2019-03-30T09:11:25.047Z,18.60
2019-03-30T09:13:54.497Z,18.70
2019-03-30T09:16:23.895Z,18.60
2019-03-30T09:18:53.358Z,18.70
2019-03-30T09:21:22.757Z,18.80
2019-03-30T09:23:52.200Z,18.80
2019-03-30T09:26:21.603Z,18.80
2019-03-30T09:28:51.008Z,18.80
2019-03-30T09:31:20.465Z,18.80
2019-03-30T09:33:49.866Z,18.90
2019-03-30T09:36:19.259Z,18.90
2019-03-30T09:38:48.667Z,18.90
2019-03-30T09:41:18.058Z,19.00
2019-03-30T09:43:47.539Z,19.00
2019-03-30T09:46:16.931Z,19.00
2019-03-30T09:48:46.327Z,19.00
2019-03-30T09:51:15.804Z,19.10
2019-03-30T09:53:45.188Z,19.10
2019-03-30T09:56:14.763Z,19.10
2019-03-30T09:58:44.143Z,19.20
2019-03-30T10:01:13.659Z,19.20
2019-03-30T10:03:43.053Z,19.20
2019-03-30T10:06:12.453Z,19.10
2019-03-30T10:08:42.052Z,19.20
2019-03-30T10:11:11.520Z,19.30
2019-03-30T10:13:40.907Z,19.30
2019-03-30T10:16:10.376Z,19.30
2019-03-30T10:18:40.820Z,19.30
2019-03-30T10:21:10.225Z,19.40
2019-03-30T10:23:39.664Z,19.40
2019-03-30T10:26:09.127Z,19.40
2019-03-30T10:28:38.499Z,19.40
2019-03-30T10:31:07.898Z,19.40
2019-03-30T10:33:37.283Z,19.30
2019-03-30T10:36:06.703Z,19.40
2019-03-30T10:38:36.091Z,19.40
2019-03-30T10:41:05.522Z,19.50
2019-03-30T10:43:34.925Z,19.40
2019-03-30T10:46:04.317Z,19.30
2019-03-30T10:48:33.779Z,19.40
2019-03-30T10:51:26.990Z,19.30
2019-03-30T10:53:56.390Z,19.20
2019-03-30T10:56:25.823Z,19.10
2019-03-30T10:58:55.311Z,19.30
2019-03-30T11:01:24.690Z,19.40
2019-03-30T11:03:54.121Z,19.30
2019-03-30T11:06:23.579Z,19.30
2019-03-30T11:08:52.979Z,19.30
2019-03-30T11:11:22.383Z,19.20
2019-03-30T11:13:51.786Z,19.20
2019-03-30T11:16:21.183Z,19.20
2019-03-30T11:18:50.658Z,19.20
2019-03-30T11:21:20.044Z,19.20
2019-03-30T11:23:49.443Z,19.20
2019-03-30T11:26:18.839Z,19.30
2019-03-30T11:28:49.375Z,19.20
2019-03-30T11:31:18.783Z,19.20
2019-03-30T11:33:48.300Z,19.30
2019-03-30T11:36:18.732Z,19.30
2019-03-30T11:38:48.443Z,19.30
2019-03-30T11:41:17.823Z,19.30
2019-03-30T11:43:47.208Z,19.30
2019-03-30T11:46:16.640Z,19.20
2019-03-30T11:48:46.072Z,19.30
2019-03-30T11:51:15.479Z,19.30
2019-03-30T11:53:44.863Z,19.40
2019-03-30T11:56:14.248Z,19.40
2019-03-30T11:58:43.638Z,19.30
2019-03-30T12:01:13.215Z,19.30
2019-03-30T12:03:43.742Z,19.30
2019-03-30T12:06:13.198Z,19.30
2019-03-30T12:08:42.595Z,19.40
2019-03-30T12:11:11.979Z,19.40
2019-03-30T12:13:41.512Z,19.40
2019-03-30T12:16:10.963Z,19.40
2019-03-30T12:18:40.350Z,19.40
2019-03-30T12:21:09.915Z,19.40
2019-03-30T12:23:42.509Z,19.40
2019-03-30T12:26:10.443Z,19.40
2019-03-30T12:28:39.819Z,19.40
2019-03-30T12:31:09.220Z,19.40
2019-03-30T12:33:38.612Z,19.40
2019-03-30T12:36:08.070Z,19.40
2019-03-30T12:38:37.445Z,19.40
2019-03-30T12:41:06.949Z,19.40
2019-03-30T12:43:39.003Z,19.40
2019-03-30T12:46:07.500Z,19.40
2019-03-30T12:48:36.878Z,19.40
2019-03-30T12:51:06.375Z,19.40
2019-03-30T12:53:49.142Z,19.40
2019-03-30T12:56:08.983Z,19.50
2019-03-30T12:58:38.026Z,19.50
2019-03-30T13:01:07.483Z,19.40
2019-03-30T13:03:37.944Z,19.50
2019-03-30T13:06:07.416Z,19.40
2019-03-30T13:08:36.800Z,19.50
2019-03-30T13:11:06.229Z,19.50
2019-03-30T13:13:35.687Z,19.40
2019-03-30T13:16:05.063Z,19.40
2019-03-30T13:18:34.555Z,19.40
2019-03-30T13:21:03.997Z,19.40
2019-03-30T13:23:33.387Z,19.40
2019-03-30T13:26:04.291Z,19.50
2019-03-30T13:28:33.930Z,19.50
2019-03-30T13:31:03.496Z,19.50
2019-03-30T13:33:32.871Z,19.40
2019-03-30T13:36:02.263Z,19.40
2019-03-30T13:38:31.645Z,19.50
2019-03-30T13:41:01.034Z,19.40
2019-03-30T13:43:31.956Z,19.50
2019-03-30T13:46:01.338Z,19.40
2019-03-30T13:48:30.709Z,19.40
2019-03-30T13:51:00.175Z,19.50
2019-03-30T13:53:29.552Z,19.50
2019-03-30T13:55:58.927Z,19.60
2019-03-30T13:58:28.323Z,19.50
2019-03-30T14:00:57.698Z,19.50
2019-03-30T14:03:27.092Z,19.50
2019-03-30T14:05:56.484Z,19.40
2019-03-30T14:08:25.867Z,19.50
2019-03-30T14:10:56.080Z,19.50
2019-03-30T14:13:25.530Z,19.40
2019-03-30T14:15:54.899Z,19.30
2019-03-30T14:18:24.271Z,19.20
2019-03-30T14:21:13.011Z,19.20
2019-03-30T14:23:43.629Z,19.40
2019-03-30T14:26:13.150Z,19.40
2019-03-30T14:28:42.544Z,19.30
2019-03-30T14:31:11.927Z,19.40
2019-03-30T14:33:41.318Z,19.50
2019-03-30T14:36:10.690Z,19.50
2019-03-30T14:38:40.199Z,19.50
2019-03-30T14:41:09.646Z,19.40
2019-03-30T14:43:39.031Z,19.40
2019-03-30T14:46:08.418Z,19.40
2019-03-30T14:48:38.431Z,19.40
2019-03-30T14:51:07.799Z,19.40
2019-03-30T14:53:37.255Z,19.50
2019-03-30T14:56:06.666Z,19.50
2019-03-30T14:58:36.063Z,19.40
2019-03-30T15:01:05.515Z,19.50
2019-03-30T15:03:34.900Z,19.50
2019-03-30T15:06:06.922Z,19.50
2019-03-30T15:08:35.493Z,19.60
2019-03-30T15:11:05.059Z,19.50
2019-03-30T15:13:34.522Z,19.50
2019-03-30T15:16:03.922Z,19.50
2019-03-30T15:18:33.291Z,19.50
2019-03-30T15:21:02.670Z,19.50
2019-03-30T15:23:32.077Z,19.40
2019-03-30T15:26:01.535Z,19.50
2019-03-30T15:28:30.918Z,19.40
2019-03-30T15:31:00.323Z,19.50
2019-03-30T15:33:30.765Z,19.50
2019-03-30T15:36:00.245Z,19.60
2019-03-30T15:38:29.736Z,19.60
2019-03-30T15:41:00.190Z,19.60
2019-03-30T15:43:37.937Z,19.50
2019-03-30T15:46:00.806Z,19.60
2019-03-30T15:48:30.191Z,19.60
2019-03-30T15:50:59.645Z,19.60
2019-03-30T15:53:29.033Z,19.50
2019-03-30T15:55:58.488Z,19.50
2019-03-30T15:58:27.868Z,19.50
2019-03-30T16:00:57.377Z,19.50
2019-03-30T16:03:26.778Z,19.60
2019-03-30T16:05:56.185Z,19.60
2019-03-30T16:08:25.557Z,19.60
2019-03-30T16:10:55.296Z,19.60
2019-03-30T16:13:24.690Z,19.60
2019-03-30T16:15:54.086Z,19.60
2019-03-30T16:18:23.549Z,19.70
2019-03-30T16:20:53.007Z,19.60
2019-03-30T16:23:22.422Z,19.60
2019-03-30T16:25:52.043Z,19.50
2019-03-30T16:28:21.483Z,19.50
2019-03-30T16:30:50.878Z,19.50
2019-03-30T16:33:20.315Z,19.60
2019-03-30T16:35:49.719Z,19.60
2019-03-30T16:38:19.584Z,19.60
2019-03-30T16:40:48.984Z,19.60
2019-03-30T16:43:18.400Z,19.60
2019-03-30T16:45:47.803Z,19.60
2019-03-30T16:48:17.289Z,19.60
2019-03-30T16:50:46.793Z,19.60
2019-03-30T16:53:16.274Z,19.60
2019-03-30T16:55:45.670Z,19.60
2019-03-30T16:58:15.087Z,19.60
2019-03-30T17:00:56.177Z,19.60
2019-03-30T17:03:15.756Z,19.60
2019-03-30T17:05:45.154Z,19.60
2019-03-30T17:08:14.571Z,19.60
2019-03-30T17:10:43.999Z,19.60
2019-03-30T17:13:13.467Z,19.60
2019-03-30T17:15:43.020Z,19.60
2019-03-30T17:18:12.580Z,19.60
2019-03-30T17:20:41.997Z,19.60
2019-03-30T17:23:11.395Z,19.60
2019-03-30T17:25:40.798Z,19.60
2019-03-30T17:28:10.196Z,19.60
2019-03-30T17:30:39.671Z,19.60
2019-03-30T17:33:09.237Z,19.60
2019-03-30T17:35:38.643Z,19.60
2019-03-30T17:38:08.076Z,19.60
2019-03-30T17:40:37.472Z,19.60
2019-03-30T17:43:06.876Z,19.60
2019-03-30T17:45:36.383Z,19.60
2019-03-30T17:48:05.868Z,19.60
2019-03-30T17:50:35.247Z,19.60
2019-03-30T17:53:04.655Z,19.60
2019-03-30T17:55:34.419Z,19.60
2019-03-30T17:58:13.062Z,19.60
2019-03-30T18:00:36.451Z,19.60
2019-03-30T18:03:06.985Z,19.50
2019-03-30T18:05:36.454Z,19.50
2019-03-30T18:08:05.848Z,19.50
2019-03-30T18:10:35.243Z,19.50
2019-03-30T18:13:05.838Z,19.40
2019-03-30T18:15:38.780Z,19.30
2019-03-30T18:18:08.163Z,19.10
2019-03-30T18:20:37.559Z,19.10
2019-03-30T18:23:07.123Z,19.00
2019-03-30T18:25:36.968Z,19.00
2019-03-30T18:28:06.436Z,19.00
2019-03-30T18:30:42.315Z,19.00
2019-03-30T18:33:11.818Z,19.00
2019-03-30T18:35:41.375Z,19.00
2019-03-30T18:38:12.861Z,18.90
2019-03-30T18:40:41.868Z,18.90
2019-03-30T18:43:11.272Z,18.90
2019-03-30T18:45:40.671Z,18.80
2019-03-30T18:48:15.091Z,18.80
2019-03-30T18:50:45.218Z,18.70
2019-03-30T18:53:18.476Z,18.70
2019-03-30T18:55:47.882Z,18.70
2019-03-30T18:58:17.460Z,18.70
2019-03-30T19:00:46.939Z,18.70
2019-03-30T19:03:19.714Z,18.70
2019-03-30T19:05:47.411Z,18.70
2019-03-30T19:08:16.865Z,18.70
2019-03-30T19:10:46.267Z,18.80
2019-03-30T19:13:15.672Z,18.70
2019-03-30T19:15:45.075Z,18.70
2019-03-30T19:18:14.504Z,18.60
2019-03-30T19:20:43.980Z,18.50
2019-03-30T19:23:13.374Z,18.50
2019-03-30T19:25:43.916Z,18.50
2019-03-30T19:28:13.304Z,18.50
2019-03-30T19:30:42.896Z,18.50
2019-03-30T19:33:12.558Z,18.40
2019-03-30T19:35:42.033Z,18.40
2019-03-30T19:38:11.570Z,18.40
2019-03-30T19:40:41.017Z,18.40
2019-03-30T19:43:10.478Z,18.40
2019-03-30T19:45:39.989Z,18.30
2019-03-30T19:48:09.389Z,18.40
2019-03-30T19:50:38.874Z,18.30
2019-03-30T19:53:08.390Z,18.30
2019-03-30T19:55:37.820Z,18.30
2019-03-30T19:58:07.217Z,18.30
2019-03-30T20:00:38.665Z,18.30
2019-03-30T20:03:07.875Z,18.20
2019-03-30T20:05:56.616Z,18.20
2019-03-30T20:08:26.164Z,18.20
2019-03-30T20:10:55.562Z,18.20
2019-03-30T20:13:24.962Z,18.20
2019-03-30T20:15:54.751Z,18.20
2019-03-30T20:18:24.144Z,18.10
2019-03-30T20:20:53.557Z,18.20
2019-03-30T20:23:23.013Z,18.20
2019-03-30T20:25:52.498Z,18.20
2019-03-30T20:28:22.075Z,18.20
2019-03-30T20:30:51.818Z,18.20
2019-03-30T20:33:21.222Z,18.10
2019-03-30T20:35:50.640Z,18.20
2019-03-30T20:38:21.087Z,18.10
2019-03-30T20:40:52.220Z,18.10
2019-03-30T20:43:21.611Z,18.10
2019-03-30T20:45:52.612Z,18.10
2019-03-30T20:48:21.996Z,18.10
2019-03-30T20:50:51.540Z,18.10
2019-03-30T20:53:21.041Z,18.00
2019-03-30T20:55:50.443Z,17.90
2019-03-30T20:58:20.001Z,17.90
2019-03-30T21:00:49.475Z,17.90
2019-03-30T21:03:18.854Z,17.90
2019-03-30T21:05:48.408Z,17.80
2019-03-30T21:08:17.801Z,17.90
2019-03-30T21:10:47.211Z,17.80
2019-03-30T21:13:16.599Z,17.90
2019-03-30T21:15:46.169Z,17.80
2019-03-30T21:18:15.558Z,17.70
2019-03-30T21:20:44.951Z,17.70
2019-03-30T21:23:14.340Z,17.70
2019-03-30T21:25:43.755Z,17.70
2019-03-30T21:28:13.322Z,17.70
2019-03-30T21:30:42.732Z,17.70
2019-03-30T21:33:12.127Z,17.60
2019-03-30T21:35:41.615Z,17.60
2019-03-30T21:38:11.003Z,17.60
2019-03-30T21:40:40.404Z,17.60
2019-03-30T21:43:09.807Z,17.60
2019-03-30T21:45:39.193Z,17.60
2019-03-30T21:48:08.602Z,17.60
2019-03-30T21:50:37.990Z,17.60
2019-03-30T21:53:07.479Z,17.50
2019-03-30T21:55:36.861Z,17.50
2019-03-30T21:58:06.253Z,17.50
2019-03-30T22:00:37.595Z,17.40
2019-03-30T22:03:07.155Z,17.50
2019-03-30T22:05:36.618Z,17.50
2019-03-30T22:08:07.315Z,17.50
2019-03-30T22:10:36.719Z,17.40
2019-03-30T22:13:06.343Z,17.50
2019-03-30T22:15:35.743Z,17.40
2019-03-30T22:18:05.301Z,17.40
2019-03-30T22:20:34.703Z,17.40
2019-03-30T22:23:04.201Z,17.40
2019-03-30T22:25:33.592Z,17.40
2019-03-30T22:28:03.064Z,17.40
2019-03-30T22:30:32.451Z,17.40
2019-03-30T22:33:01.880Z,17.20
2019-03-30T22:35:31.395Z,17.20
2019-03-30T22:38:00.787Z,17.10
2019-03-30T22:40:30.175Z,17.10
2019-03-30T22:42:59.587Z,17.10
2019-03-30T22:45:28.996Z,17.00
2019-03-30T22:47:58.441Z,17.00
2019-03-30T22:50:27.835Z,17.00
2019-03-30T22:52:58.295Z,17.10
2019-03-30T22:55:27.690Z,17.10
2019-03-30T22:57:57.150Z,17.00
2019-03-30T23:00:43.335Z,17.00
2019-03-30T23:03:14.407Z,17.00
2019-03-30T23:05:43.821Z,17.00
2019-03-30T23:08:14.999Z,16.90
2019-03-30T23:10:44.391Z,16.90
2019-03-30T23:13:33.127Z,16.90
2019-03-30T23:16:02.545Z,16.90
2019-03-30T23:18:31.933Z,16.90
2019-03-30T23:21:01.406Z,16.80
2019-03-30T23:23:31.766Z,16.80
2019-03-30T23:26:01.157Z,16.80
2019-03-30T23:28:30.542Z,16.80
2019-03-30T23:30:59.957Z,16.80
2019-03-30T23:33:30.471Z,16.80
2019-03-30T23:35:59.875Z,16.80
2019-03-30T23:38:29.274Z,16.80
2019-03-30T23:40:58.675Z,16.80
2019-03-30T23:43:28.151Z,16.90
2019-03-30T23:45:57.553Z,16.90
2019-03-30T23:48:26.966Z,16.90
2019-03-30T23:50:56.418Z,16.90
2019-03-30T23:53:25.802Z,16.90
2019-03-30T23:55:55.207Z,16.80
2019-03-30T23:58:24.598Z,16.70
